Time;durP1;ratioP1;P1;durP2;ratioP2;P2;SDS_P1;SDS_P2;PMS_P1;PMS_P2;Temp;Humidity;BMP_temperature;BMP_pressure;BME280_temperature;BME280_humidity;BME280_pressure;Samples;Min_cycle;Max_cycle;Signal;HPM_P1;HPM_P2
2022/09/05 00:01:52;;;;;;;9.27;6.93;;;;;;;;;;5095133;28;20425;-74
2022/09/05 00:04:23;;;;;;;9.40;7.53;;;;;;;;;;5094883;28;20466;-74
2022/09/05 00:06:54;;;;;;;8.47;6.77;;;;;;;;;;5095164;28;20461;-74
2022/09/05 00:09:26;;;;;;;5.93;5.47;;;;;;;;;;5094861;28;20442;-74
2022/09/05 00:11:56;;;;;;;6.87;5.60;;;;;;;;;;5095591;28;20431;-74
2022/09/05 00:14:33;;;;;;;6.57;5.83;;;;;;;;;;5097107;28;20833;-74
2022/09/05 00:17:05;;;;;;;6.10;5.50;;;;;;;;;;5098851;28;20435;-74
2022/09/05 00:19:36;;;;;;;6.50;5.90;;;;;;;;;;5098334;28;20495;-74
2022/09/05 00:22:11;;;;;;;8.70;6.00;;;;;;;;;;5097833;28;20435;-74
2022/09/05 00:24:44;;;;;;;7.00;5.50;;;;;;;;;;5097962;28;20501;-74
2022/09/05 00:27:16;;;;;;;8.90;5.37;;;;;;;;;;5098442;28;20908;-74
2022/09/05 00:29:48;;;;;;;6.80;5.20;;;;;;;;;;5098007;28;20447;-74
2022/09/05 00:32:20;;;;;;;6.80;5.67;;;;;;;;;;5098085;28;20446;-74
2022/09/05 00:35:17;;;;;;;9.13;5.40;;;;;;;;;;5098577;28;20470;-74
2022/09/05 00:37:46;;;;;;;6.10;5.20;;;;;;;;;;5097853;28;20870;-74
2022/09/05 00:40:21;;;;;;;6.17;4.90;;;;;;;;;;5098044;28;20454;-74
2022/09/05 00:42:52;;;;;;;6.13;5.53;;;;;;;;;;5098382;28;20456;-74
2022/09/05 00:45:24;;;;;;;6.73;5.37;;;;;;;;;;5097791;28;20842;-74
2022/09/05 00:47:54;;;;;;;7.83;5.40;;;;;;;;;;5098175;28;20438;-74
2022/09/05 00:50:26;;;;;;;9.13;7.90;;;;;;;;;;5098097;28;20442;-74
2022/09/05 00:52:57;;;;;;;8.73;5.60;;;;;;;;;;5098474;28;20431;-74
2022/09/05 00:55:26;;;;;;;7.30;5.80;;;;;;;;;;5097980;28;20470;-74
2022/09/05 00:58:05;;;;;;;5.87;4.93;;;;;;;;;;5097294;28;20493;-74
2022/09/05 01:00:45;;;;;;;19.30;6.27;;;;;;;;;;5097644;28;20458;-74
2022/09/05 01:03:39;;;;;;;8.30;5.50;;;;;;;;;;5098249;28;20476;-74
2022/09/05 01:06:16;;;;;;;6.10;5.50;;;;;;;;;;5061881;28;20453;-74
2022/09/05 01:08:55;;;;;;;6.60;5.10;;;;;;;;;;5098241;28;20434;-74
2022/09/05 01:11:32;;;;;;;6.70;6.00;;;;;;;;;;5097664;28;20431;-74
2022/09/05 01:14:07;;;;;;;6.13;5.57;;;;;;;;;;5097639;28;20463;-74
2022/09/05 01:16:36;;;;;;;6.87;4.80;;;;;;;;;;5097727;28;20426;-74
2022/09/05 01:19:11;;;;;;;6.10;5.53;;;;;;;;;;5097604;28;20493;-74
2022/09/05 01:21:50;;;;;;;9.30;5.80;;;;;;;;;;5097561;28;20442;-74
2022/09/05 01:24:24;;;;;;;5.90;5.30;;;;;;;;;;5097372;28;20470;-74
2022/09/05 01:26:58;;;;;;;6.80;5.77;;;;;;;;;;5097726;28;20449;-74
2022/09/05 01:29:30;;;;;;;6.27;5.67;;;;;;;;;;5098243;28;20427;-74
2022/09/05 01:32:06;;;;;;;7.60;6.73;;;;;;;;;;5098385;28;20439;-74
2022/09/05 01:34:38;;;;;;;7.43;5.70;;;;;;;;;;5098442;28;20470;-74
2022/09/05 01:37:08;;;;;;;7.10;5.20;;;;;;;;;;5098783;28;20447;-74
2022/09/05 01:39:42;;;;;;;7.33;5.63;;;;;;;;;;5098733;28;20980;-74
2022/09/05 01:42:16;;;;;;;6.63;6.00;;;;;;;;;;5098139;28;20462;-74
2022/09/05 01:44:55;;;;;;;11.53;5.63;;;;;;;;;;5098454;28;20979;-74
2022/09/05 01:47:37;;;;;;;6.30;5.20;;;;;;;;;;5098216;28;20454;-74
2022/09/05 01:50:13;;;;;;;5.80;5.13;;;;;;;;;;5097891;28;20904;-74
2022/09/05 01:52:47;;;;;;;7.00;5.90;;;;;;;;;;5097385;28;20434;-74
2022/09/05 01:55:23;;;;;;;5.93;5.33;;;;;;;;;;5098054;28;20504;-74
2022/09/05 01:57:54;;;;;;;14.10;10.13;;;;;;;;;;5098389;28;20434;-74
2022/09/05 02:00:24;;;;;;;5.63;5.13;;;;;;;;;;5098278;28;20443;-74
2022/09/05 02:03:01;;;;;;;6.47;4.60;;;;;;;;;;5097261;28;20476;-74
2022/09/05 02:05:39;;;;;;;6.37;5.77;;;;;;;;;;5098013;28;20481;-74
2022/09/05 02:08:19;;;;;;;8.40;5.20;;;;;;;;;;5097604;28;20951;-74
2022/09/05 02:11:00;;;;;;;5.80;4.97;;;;;;;;;;5097373;28;20441;-74
2022/09/05 02:13:31;;;;;;;11.63;9.03;;;;;;;;;;5097007;28;20485;-74
2022/09/05 02:16:04;;;;;;;14.83;6.33;;;;;;;;;;5097268;28;20443;-74
2022/09/05 02:18:44;;;;;;;5.47;4.77;;;;;;;;;;5096898;28;20471;-74
2022/09/05 02:21:15;;;;;;;10.67;6.60;;;;;;;;;;5097038;28;20530;-74
2022/09/05 02:23:44;;;;;;;5.80;4.60;;;;;;;;;;5096738;28;20478;-74
2022/09/05 02:26:17;;;;;;;6.03;5.43;;;;;;;;;;5097246;28;20477;-74
2022/09/05 02:28:47;;;;;;;5.70;5.10;;;;;;;;;;5097190;28;20435;-74
2022/09/05 02:31:20;;;;;;;6.83;5.37;;;;;;;;;;5097148;28;20442;-74
2022/09/05 02:33:48;;;;;;;6.07;5.47;;;;;;;;;;5096672;28;20477;-74
2022/09/05 02:36:19;;;;;;;7.43;6.00;;;;;;;;;;5096117;28;20455;-74
2022/09/05 02:38:48;;;;;;;8.37;5.30;;;;;;;;;;5096344;28;20477;-74
2022/09/05 02:41:20;;;;;;;12.10;5.60;;;;;;;;;;5096813;28;20463;-74
2022/09/05 02:43:49;;;;;;;5.63;4.93;;;;;;;;;;5097103;28;20971;-74
2022/09/05 02:46:20;;;;;;;7.50;6.47;;;;;;;;;;5096731;28;20446;-74
2022/09/05 02:48:51;;;;;;;6.10;5.50;;;;;;;;;;5097119;28;20443;-74
2022/09/05 02:51:20;;;;;;;7.97;5.50;;;;;;;;;;5097256;28;20434;-74
2022/09/05 02:53:50;;;;;;;8.33;6.10;;;;;;;;;;5097027;28;20482;-74
2022/09/05 02:56:31;;;;;;;6.00;5.23;;;;;;;;;;5097031;28;20458;-74
2022/09/05 02:59:04;;;;;;;7.40;5.30;;;;;;;;;;5096792;28;20481;-74
2022/09/05 03:01:44;;;;;;;9.63;6.20;;;;;;;;;;5096964;28;20439;-73
2022/09/05 03:04:18;;;;;;;9.50;6.10;;;;;;;;;;5097472;28;20604;-74
2022/09/05 03:06:52;;;;;;;8.70;6.27;;;;;;;;;;5096981;28;20430;-74
2022/09/05 03:09:26;;;;;;;9.90;7.70;;;;;;;;;;5097369;28;20434;-74
2022/09/05 03:12:18;;;;;;;9.97;6.20;;;;;;;;;;5096500;28;20441;-74
2022/09/05 03:15:07;;;;;;;13.17;9.90;;;;;;;;;;5096518;28;20473;-74
2022/09/05 03:17:52;;;;;;;17.60;11.60;;;;;;;;;;5097140;28;20427;-74
2022/09/05 03:20:50;;;;;;;18.60;14.60;;;;;;;;;;5096356;28;20496;-74
2022/09/05 03:23:37;;;;;;;20.00;13.63;;;;;;;;;;5096363;28;20439;-74
2022/09/05 03:26:19;;;;;;;27.40;16.63;;;;;;;;;;5096023;28;20530;-74
2022/09/05 03:29:04;;;;;;;21.17;16.97;;;;;;;;;;5096054;28;20446;-74
2022/09/05 03:31:40;;;;;;;23.73;17.43;;;;;;;;;;5096688;28;20442;-74
2022/09/05 03:34:19;;;;;;;28.50;19.47;;;;;;;;;;5096695;28;20482;-74
2022/09/05 03:37:02;;;;;;;34.27;20.73;;;;;;;;;;5096981;28;20931;-74
2022/09/05 03:39:47;;;;;;;24.80;17.80;;;;;;;;;;5096587;28;20483;-74
2022/09/05 03:42:35;;;;;;;24.23;18.67;;;;;;;;;;5096309;28;20458;-73
2022/09/05 03:45:12;;;;;;;26.20;19.00;;;;;;;;;;5071044;28;20494;-73
2022/09/05 03:47:56;;;;;;;21.23;16.60;;;;;;;;;;5098023;28;20446;-73
2022/09/05 03:50:33;;;;;;;23.13;16.70;;;;;;;;;;5101448;28;20433;-74
2022/09/05 03:53:06;;;;;;;26.50;17.23;;;;;;;;;;5101432;28;20470;-74
2022/09/05 03:55:55;;;;;;;24.83;16.93;;;;;;;;;;5101349;28;20451;-74
2022/09/05 03:58:30;;;;;;;21.37;17.50;;;;;;;;;;5101601;28;20533;-74
2022/09/05 04:01:02;;;;;;;25.13;17.07;;;;;;;;;;5101176;28;20457;-74
2022/09/05 04:03:32;;;;;;;26.17;17.00;;;;;;;;;;5100485;28;20471;-74
2022/09/05 04:06:08;;;;;;;34.47;17.60;;;;;;;;;;5101932;28;20485;-74
2022/09/05 04:08:40;;;;;;;22.80;16.93;;;;;;;;;;5101341;28;20899;-74
2022/09/05 04:11:09;;;;;;;22.07;15.37;;;;;;;;;;5100753;28;20438;-74
2022/09/05 04:13:38;;;;;;;16.30;12.87;;;;;;;;;;5101061;28;21001;-74
2022/09/05 04:16:12;;;;;;;21.93;13.33;;;;;;;;;;5100338;28;20825;-74
2022/09/05 04:18:41;;;;;;;23.37;13.50;;;;;;;;;;5100788;28;20566;-74
2022/09/05 04:21:12;;;;;;;15.13;9.17;;;;;;;;;;5101471;28;20457;-74
2022/09/05 04:23:48;;;;;;;19.57;12.10;;;;;;;;;;5100758;28;20481;-74
2022/09/05 04:26:24;;;;;;;25.73;16.80;;;;;;;;;;5100811;28;20435;-74
2022/09/05 04:29:01;;;;;;;23.77;16.57;;;;;;;;;;5101004;28;20795;-74
2022/09/05 04:31:35;;;;;;;28.00;20.10;;;;;;;;;;5099884;28;20439;-74
2022/09/05 04:34:09;;;;;;;31.80;21.07;;;;;;;;;;5099793;28;20516;-73
2022/09/05 04:36:38;;;;;;;39.10;22.93;;;;;;;;;;5099618;28;20442;-74
2022/09/05 04:39:07;;;;;;;55.77;24.27;;;;;;;;;;5099548;28;20494;-74
2022/09/05 04:41:36;;;;;;;83.30;24.60;;;;;;;;;;5099327;28;20459;-74
2022/09/05 04:44:07;;;;;;;83.30;24.97;;;;;;;;;;5099008;28;20976;-74
2022/09/05 04:46:38;;;;;;;118.10;26.10;;;;;;;;;;5098785;28;20794;-73
2022/09/05 04:49:07;;;;;;;159.83;25.83;;;;;;;;;;5098786;28;20534;-73
2022/09/05 04:51:52;;;;;;;76.90;23.10;;;;;;;;;;5099330;28;20450;-73
2022/09/05 04:54:26;;;;;;;79.70;21.77;;;;;;;;;;5087774;28;20566;-74
2022/09/05 04:56:55;;;;;;;85.37;22.10;;;;;;;;;;5098206;28;20431;-73
2022/09/05 04:59:25;;;;;;;93.43;18.30;;;;;;;;;;5098461;28;20486;-74
2022/09/05 05:01:54;;;;;;;174.27;22.50;;;;;;;;;;5097656;28;20864;-74
2022/09/05 05:04:23;;;;;;;226.90;24.40;;;;;;;;;;5097370;28;21033;-73
2022/09/05 05:06:54;;;;;;;113.33;20.27;;;;;;;;;;5097627;28;20459;-73
2022/09/05 05:09:24;;;;;;;177.60;21.77;;;;;;;;;;5098017;28;20496;-74
2022/09/05 05:11:56;;;;;;;294.70;27.67;;;;;;;;;;5096704;28;20533;-73
2022/09/05 05:14:26;;;;;;;106.07;16.47;;;;;;;;;;5096910;28;21083;-73
2022/09/05 05:16:56;;;;;;;165.97;17.20;;;;;;;;;;5097210;28;20427;-73
2022/09/05 05:19:25;;;;;;;107.83;16.77;;;;;;;;;;5096487;28;20514;-73
2022/09/05 05:21:53;;;;;;;211.53;19.70;;;;;;;;;;5096497;28;20439;-73
2022/09/05 05:24:22;;;;;;;138.50;17.57;;;;;;;;;;5096814;28;20838;-73
2022/09/05 05:26:53;;;;;;;89.97;15.07;;;;;;;;;;5096766;28;20477;-73
2022/09/05 05:29:23;;;;;;;241.63;23.80;;;;;;;;;;5095964;28;20431;-73
2022/09/05 05:31:52;;;;;;;136.43;17.10;;;;;;;;;;5097131;28;20885;-74
2022/09/05 05:34:21;;;;;;;82.33;14.50;;;;;;;;;;5096328;28;20470;-74
2022/09/05 05:36:50;;;;;;;82.23;16.57;;;;;;;;;;5095918;28;20457;-73
2022/09/05 05:39:23;;;;;;;58.20;14.90;;;;;;;;;;5095920;28;20486;-73
2022/09/05 05:41:53;;;;;;;213.43;20.87;;;;;;;;;;5096261;28;20459;-73
2022/09/05 05:44:25;;;;;;;100.47;17.43;;;;;;;;;;5096802;28;20471;-73
2022/09/05 05:46:57;;;;;;;112.03;16.97;;;;;;;;;;5096081;28;20480;-73
2022/09/05 05:49:27;;;;;;;38.37;12.30;;;;;;;;;;5096154;28;20518;-73
2022/09/05 05:52:12;;;;;;;52.37;13.30;;;;;;;;;;5095927;28;20431;-73
2022/09/05 05:54:44;;;;;;;88.50;13.20;;;;;;;;;;5096042;28;20474;-73
2022/09/05 05:57:33;;;;;;;89.40;13.67;;;;;;;;;;5095571;28;20438;-73
2022/09/05 06:00:05;;;;;;;59.73;12.00;;;;;;;;;;5096142;28;20482;-74
2022/09/05 06:03:01;;;;;;;35.47;11.13;;;;;;;;;;5096348;28;20454;-73
2022/09/05 06:05:35;;;;;;;27.07;11.00;;;;;;;;;;5096530;28;20471;-74
2022/09/05 06:08:08;;;;;;;16.43;9.50;;;;;;;;;;5096810;28;20440;-73
2022/09/05 06:10:54;;;;;;;16.00;10.70;;;;;;;;;;5096957;28;20506;-73
2022/09/05 06:13:31;;;;;;;22.43;9.60;;;;;;;;;;5095923;28;20923;-74
2022/09/05 06:16:11;;;;;;;14.20;8.53;;;;;;;;;;5097092;28;20434;-74
2022/09/05 06:18:55;;;;;;;13.57;9.10;;;;;;;;;;5097019;28;20453;-74
2022/09/05 06:21:34;;;;;;;19.83;9.97;;;;;;;;;;5096453;28;20435;-74
2022/09/05 06:24:21;;;;;;;22.53;9.57;;;;;;;;;;5096092;28;20467;-73
2022/09/05 06:26:55;;;;;;;18.87;9.23;;;;;;;;;;5096580;28;20872;-73
2022/09/05 06:29:29;;;;;;;23.03;9.00;;;;;;;;;;5096258;28;20431;-74
2022/09/05 06:32:02;;;;;;;28.63;8.93;;;;;;;;;;5095749;28;20431;-73
2022/09/05 06:34:44;;;;;;;11.50;8.97;;;;;;;;;;5097027;28;20968;-73
2022/09/05 06:37:16;;;;;;;14.40;8.80;;;;;;;;;;5096106;28;20422;-73
2022/09/05 06:39:53;;;;;;;11.07;8.47;;;;;;;;;;5096210;28;20737;-73
2022/09/05 06:42:24;;;;;;;15.53;8.40;;;;;;;;;;5096378;28;20458;-74
2022/09/05 06:44:59;;;;;;;11.57;8.70;;;;;;;;;;5096283;28;20471;-74
2022/09/05 06:47:28;;;;;;;19.03;8.40;;;;;;;;;;5096537;28;20445;-74
2022/09/05 06:50:04;;;;;;;13.40;9.47;;;;;;;;;;5095855;28;20457;-74
2022/09/05 06:52:51;;;;;;;14.00;9.27;;;;;;;;;;5096077;28;20911;-73
2022/09/05 06:55:36;;;;;;;9.63;8.30;;;;;;;;;;5095288;28;20478;-74
2022/09/05 06:58:28;;;;;;;10.40;8.43;;;;;;;;;;5094242;28;20453;-74
2022/09/05 07:00:57;;;;;;;11.37;8.43;;;;;;;;;;5094621;28;20850;-74
2022/09/05 07:03:29;;;;;;;11.20;7.73;;;;;;;;;;5094466;28;20562;-74
2022/09/05 07:05:58;;;;;;;10.57;8.93;;;;;;;;;;5094300;28;20443;-74
2022/09/05 07:08:29;;;;;;;10.33;9.23;;;;;;;;;;5094270;28;20791;-74
2022/09/05 07:10:58;;;;;;;10.87;9.70;;;;;;;;;;5093743;28;20612;-74
2022/09/05 07:13:31;;;;;;;9.47;7.77;;;;;;;;;;5093755;28;20991;-74
2022/09/05 07:16:00;;;;;;;8.53;7.30;;;;;;;;;;5093778;28;20798;-74
2022/09/05 07:18:31;;;;;;;8.87;7.87;;;;;;;;;;5093344;28;20490;-74
2022/09/05 07:21:02;;;;;;;8.33;7.53;;;;;;;;;;5093946;28;20478;-74
2022/09/05 07:23:41;;;;;;;8.73;7.93;;;;;;;;;;5096102;28;20486;-74
2022/09/05 07:26:09;;;;;;;10.60;8.33;;;;;;;;;;5097905;28;20442;-74
2022/09/05 07:28:37;;;;;;;11.83;8.50;;;;;;;;;;5098249;28;20909;-74
2022/09/05 07:31:07;;;;;;;9.60;8.67;;;;;;;;;;5097908;28;20446;-74
2022/09/05 07:33:37;;;;;;;10.10;8.30;;;;;;;;;;5098319;28;20481;-74
2022/09/05 07:36:06;;;;;;;8.30;7.50;;;;;;;;;;5099391;28;20844;-74
2022/09/05 07:38:35;;;;;;;11.67;9.17;;;;;;;;;;5098584;28;20838;-74
2022/09/05 07:41:04;;;;;;;9.00;8.10;;;;;;;;;;5098795;28;20882;-74
2022/09/05 07:43:35;;;;;;;9.30;7.87;;;;;;;;;;5097874;28;20466;-74
2022/09/05 07:46:11;;;;;;;9.37;8.47;;;;;;;;;;5098487;28;20434;-74
2022/09/05 07:48:42;;;;;;;8.20;7.40;;;;;;;;;;5098632;28;20492;-74
2022/09/05 07:51:13;;;;;;;8.50;7.70;;;;;;;;;;5098294;28;20427;-74
2022/09/05 07:53:42;;;;;;;13.63;10.07;;;;;;;;;;5097357;28;20481;-74
2022/09/05 07:56:10;;;;;;;15.97;10.47;;;;;;;;;;5097558;28;20450;-74
2022/09/05 07:58:40;;;;;;;15.97;9.00;;;;;;;;;;5097619;28;20804;-74
2022/09/05 08:01:07;;;;;;;11.73;9.60;;;;;;;;;;5097712;28;20470;-74
2022/09/05 08:03:34;;;;;;;11.30;8.93;;;;;;;;;;5098019;28;20481;-74
2022/09/05 08:06:05;;;;;;;12.70;9.90;;;;;;;;;;5097513;28;20457;-74
2022/09/05 08:08:35;;;;;;;11.70;8.70;;;;;;;;;;5097302;28;20442;-74
2022/09/05 08:11:06;;;;;;;10.90;8.37;;;;;;;;;;5096832;28;20437;-74
2022/09/05 08:14:00;;;;;;;10.60;8.87;;;;;;;;;;5096680;28;21008;-74
2022/09/05 08:16:27;;;;;;;11.60;8.50;;;;;;;;;;5060761;28;20471;-74
2022/09/05 08:18:57;;;;;;;11.27;8.77;;;;;;;;;;5096663;28;20953;-74
2022/09/05 08:21:28;;;;;;;10.80;8.83;;;;;;;;;;5096734;28;21238;-74
2022/09/05 08:24:02;;;;;;;12.20;7.97;;;;;;;;;;5096546;28;20467;-74
2022/09/05 08:26:34;;;;;;;9.77;7.80;;;;;;;;;;5096641;28;20448;-74
2022/09/05 08:29:07;;;;;;;10.80;8.90;;;;;;;;;;5096692;28;20427;-74
2022/09/05 08:31:37;;;;;;;10.67;7.33;;;;;;;;;;5096507;28;20927;-74
2022/09/05 08:34:08;;;;;;;10.53;8.57;;;;;;;;;;5095620;28;20482;-74
2022/09/05 08:36:39;;;;;;;11.13;7.63;;;;;;;;;;5096227;28;20461;-74
2022/09/05 08:39:09;;;;;;;6.67;5.80;;;;;;;;;;5096512;28;20439;-74
2022/09/05 08:41:40;;;;;;;8.97;7.70;;;;;;;;;;5096502;28;21056;-74
2022/09/05 08:44:12;;;;;;;8.67;7.60;;;;;;;;;;5096400;28;20996;-74
2022/09/05 08:46:46;;;;;;;8.77;6.37;;;;;;;;;;5096376;28;20818;-74
2022/09/05 08:49:28;;;;;;;6.90;5.80;;;;;;;;;;5096449;28;20435;-74
2022/09/05 08:51:58;;;;;;;8.80;6.80;;;;;;;;;;5093589;28;20461;-74
2022/09/05 08:54:29;;;;;;;7.20;6.17;;;;;;;;;;5096099;28;20859;-74
2022/09/05 08:57:01;;;;;;;6.53;5.03;;;;;;;;;;5096395;28;20782;-74
2022/09/05 08:59:40;;;;;;;7.07;6.37;;;;;;;;;;5095781;28;20438;-74
2022/09/05 09:02:37;;;;;;;6.70;6.20;;;;;;;;;;5096018;28;20845;-74
2022/09/05 09:05:08;;;;;;;6.37;5.87;;;;;;;;;;5095961;28;20887;-74
2022/09/05 09:07:39;;;;;;;8.30;7.50;;;;;;;;;;5095913;28;20494;-75
2022/09/05 09:10:13;;;;;;;7.83;7.03;;;;;;;;;;5095426;28;20439;-75
2022/09/05 09:12:55;;;;;;;7.27;6.60;;;;;;;;;;5095809;28;20912;-74
2022/09/05 09:15:25;;;;;;;8.13;7.43;;;;;;;;;;5096130;28;20496;-74
2022/09/05 09:17:54;;;;;;;8.07;7.30;;;;;;;;;;5096409;28;20438;-74
2022/09/05 09:20:27;;;;;;;5.80;5.00;;;;;;;;;;5095338;28;20526;-74
2022/09/05 09:22:58;;;;;;;6.60;6.00;;;;;;;;;;5096062;28;20809;-74
2022/09/05 09:25:28;;;;;;;6.27;5.67;;;;;;;;;;5095500;28;20882;-74
2022/09/05 09:28:06;;;;;;;8.30;5.43;;;;;;;;;;5095642;28;20450;-74
2022/09/05 09:30:34;;;;;;;6.53;5.93;;;;;;;;;;5095583;28;20435;-74
2022/09/05 09:33:03;;;;;;;5.33;4.83;;;;;;;;;;5095468;28;20936;-74
2022/09/05 09:35:37;;;;;;;6.20;4.60;;;;;;;;;;5095376;28;20447;-74
2022/09/05 09:38:12;;;;;;;4.80;4.30;;;;;;;;;;5095045;28;20435;-74
2022/09/05 09:40:54;;;;;;;4.93;4.53;;;;;;;;;;5094971;28;20482;-74
2022/09/05 09:43:26;;;;;;;4.17;3.87;;;;;;;;;;5095643;28;20439;-74
2022/09/05 09:46:17;;;;;;;4.57;4.27;;;;;;;;;;5094569;28;20488;-74
2022/09/05 09:48:53;;;;;;;4.67;4.00;;;;;;;;;;5095165;28;20923;-74
2022/09/05 09:51:26;;;;;;;5.10;4.70;;;;;;;;;;5094782;28;20501;-74
2022/09/05 09:54:05;;;;;;;4.40;3.83;;;;;;;;;;5095132;28;20471;-74
2022/09/05 09:56:53;;;;;;;4.60;4.30;;;;;;;;;;5094803;28;20784;-74
2022/09/05 09:59:28;;;;;;;4.10;3.80;;;;;;;;;;5068909;28;20473;-74
2022/09/05 10:02:03;;;;;;;4.30;3.80;;;;;;;;;;5094771;28;20970;-74
2022/09/05 10:04:38;;;;;;;4.70;3.20;;;;;;;;;;5095047;28;20470;-74
2022/09/05 10:07:22;;;;;;;5.10;3.70;;;;;;;;;;5094226;28;20443;-75
2022/09/05 10:10:07;;;;;;;4.80;3.50;;;;;;;;;;5094325;28;20505;-74
2022/09/05 10:12:50;;;;;;;4.67;4.27;;;;;;;;;;5094279;28;20435;-74
2022/09/05 10:15:25;;;;;;;4.37;3.60;;;;;;;;;;5094153;28;20474;-74
2022/09/05 10:18:16;;;;;;;4.37;3.80;;;;;;;;;;5094507;28;20495;-74
2022/09/05 10:21:17;;;;;;;7.73;4.40;;;;;;;;;;5094407;28;20850;-74
2022/09/05 10:24:01;;;;;;;6.17;3.53;;;;;;;;;;5031920;28;20472;-75
2022/09/05 10:26:48;;;;;;;5.30;3.67;;;;;;;;;;5022435;28;20473;-75
2022/09/05 10:29:27;;;;;;;3.93;3.03;;;;;;;;;;5076072;28;20458;-75
2022/09/05 10:31:55;;;;;;;3.27;2.97;;;;;;;;;;5095111;28;20966;-74
2022/09/05 10:34:24;;;;;;;4.70;3.90;;;;;;;;;;5094785;28;20459;-75
2022/09/05 10:36:53;;;;;;;3.90;3.20;;;;;;;;;;5094806;28;20457;-74
2022/09/05 10:39:23;;;;;;;4.50;3.30;;;;;;;;;;5094882;28;20458;-74
2022/09/05 10:41:57;;;;;;;4.23;3.33;;;;;;;;;;5094293;28;20543;-75
2022/09/05 10:44:29;;;;;;;4.17;3.77;;;;;;;;;;5094173;28;20532;-75
2022/09/05 10:47:03;;;;;;;6.37;3.53;;;;;;;;;;5094490;28;20463;-75
2022/09/05 10:49:34;;;;;;;4.53;3.27;;;;;;;;;;5094835;28;20442;-75
2022/09/05 10:52:03;;;;;;;6.00;3.23;;;;;;;;;;5094337;28;20799;-75
2022/09/05 10:54:37;;;;;;;5.20;3.50;;;;;;;;;;5094089;28;20470;-75
2022/09/05 10:57:10;;;;;;;5.13;3.00;;;;;;;;;;5093588;28;20435;-75
2022/09/05 10:59:49;;;;;;;5.77;3.63;;;;;;;;;;5093604;28;20442;-75
2022/09/05 11:02:20;;;;;;;3.47;3.17;;;;;;;;;;5094376;28;20470;-75
2022/09/05 11:04:50;;;;;;;4.20;2.93;;;;;;;;;;5094124;28;20474;-75
2022/09/05 11:07:20;;;;;;;4.10;3.40;;;;;;;;;;5094740;28;20904;-75
2022/09/05 11:09:52;;;;;;;4.50;3.80;;;;;;;;;;5093741;28;20439;-75
2022/09/05 11:12:31;;;;;;;5.60;3.60;;;;;;;;;;5093781;28;20788;-75
2022/09/05 11:15:01;;;;;;;5.70;3.40;;;;;;;;;;5094398;28;20847;-74
2022/09/05 11:17:32;;;;;;;3.70;3.40;;;;;;;;;;5094497;28;20462;-75
2022/09/05 11:20:30;;;;;;;5.50;4.63;;;;;;;;;;5094323;28;20457;-75
2022/09/05 11:23:01;;;;;;;3.50;3.20;;;;;;;;;;5094263;28;20435;-75
2022/09/05 11:25:29;;;;;;;3.73;3.13;;;;;;;;;;5094251;28;20482;-75
2022/09/05 11:28:00;;;;;;;6.23;3.60;;;;;;;;;;5094454;28;20449;-74
2022/09/05 11:30:29;;;;;;;5.50;3.50;;;;;;;;;;5094305;28;20434;-75
2022/09/05 11:33:14;;;;;;;3.20;3.00;;;;;;;;;;5093900;28;20554;-75
2022/09/05 11:35:42;;;;;;;3.40;3.10;;;;;;;;;;5094087;28;20463;-75
2022/09/05 11:38:23;;;;;;;4.53;3.57;;;;;;;;;;5094267;28;20450;-75
2022/09/05 11:40:56;;;;;;;4.40;2.87;;;;;;;;;;5094097;28;20456;-75
2022/09/05 11:43:37;;;;;;;3.10;2.70;;;;;;;;;;5094426;28;20423;-75
2022/09/05 11:46:19;;;;;;;4.03;3.50;;;;;;;;;;5094189;28;20431;-75
2022/09/05 11:49:01;;;;;;;8.20;2.80;;;;;;;;;;5093912;28;20514;-75
2022/09/05 11:51:40;;;;;;;3.03;2.83;;;;;;;;;;5060573;28;20455;-76
2022/09/05 11:54:22;;;;;;;4.17;3.30;;;;;;;;;;5093840;28;20471;-75
2022/09/05 11:57:10;;;;;;;3.00;2.70;;;;;;;;;;5060919;28;20450;-75
2022/09/05 12:00:04;;;;;;;2.50;2.30;;;;;;;;;;5093640;28;20442;-75
2022/09/05 12:02:42;;;;;;;2.40;2.20;;;;;;;;;;5093831;28;20481;-75
2022/09/05 12:05:21;;;;;;;3.30;3.00;;;;;;;;;;5093786;28;20478;-75
2022/09/05 12:07:56;;;;;;;3.00;2.37;;;;;;;;;;5093945;28;20510;-75
2022/09/05 12:10:32;;;;;;;2.57;2.37;;;;;;;;;;5097004;28;20430;-75
2022/09/05 12:13:12;;;;;;;3.30;2.70;;;;;;;;;;5097809;28;20434;-75
2022/09/05 12:15:44;;;;;;;3.80;2.30;;;;;;;;;;5097508;28;20856;-75
2022/09/05 12:18:16;;;;;;;4.17;2.70;;;;;;;;;;5097565;28;20484;-75
2022/09/05 12:20:49;;;;;;;2.70;2.17;;;;;;;;;;5098089;28;20442;-75
2022/09/05 12:23:25;;;;;;;3.00;2.33;;;;;;;;;;5097756;28;20877;-75
2022/09/05 12:25:56;;;;;;;2.70;2.50;;;;;;;;;;5098172;28;20435;-75
2022/09/05 12:28:26;;;;;;;3.10;2.80;;;;;;;;;;5097859;28;20439;-75
2022/09/05 12:30:55;;;;;;;2.53;2.10;;;;;;;;;;5097227;28;20453;-75
2022/09/05 12:33:26;;;;;;;3.30;2.17;;;;;;;;;;5097163;28;20458;-75
2022/09/05 12:36:01;;;;;;;3.13;2.83;;;;;;;;;;5097446;28;20427;-75
2022/09/05 12:38:35;;;;;;;3.43;2.93;;;;;;;;;;5097793;28;20899;-75
2022/09/05 12:41:06;;;;;;;3.60;3.20;;;;;;;;;;5097414;28;20458;-75
2022/09/05 12:43:34;;;;;;;3.77;2.83;;;;;;;;;;5097055;28;20494;-75
2022/09/05 12:46:04;;;;;;;3.93;3.10;;;;;;;;;;5096908;28;20500;-76
2022/09/05 12:48:37;;;;;;;3.20;2.90;;;;;;;;;;5096830;28;20484;-75
2022/09/05 12:51:06;;;;;;;3.20;2.90;;;;;;;;;;5096384;28;20458;-77
2022/09/05 12:53:42;;;;;;;3.47;3.00;;;;;;;;;;5096361;28;20470;-75
2022/09/05 12:56:14;;;;;;;4.27;3.50;;;;;;;;;;5096911;28;20605;-78
2022/09/05 12:58:44;;;;;;;3.70;3.40;;;;;;;;;;5097062;28;20881;-75
2022/09/05 13:01:20;;;;;;;2.77;2.57;;;;;;;;;;5096442;28;20450;-75
2022/09/05 13:03:50;;;;;;;3.20;2.90;;;;;;;;;;5096599;28;20513;-75
2022/09/05 13:06:21;;;;;;;5.63;3.50;;;;;;;;;;5096242;28;20430;-75
2022/09/05 13:08:50;;;;;;;4.23;2.67;;;;;;;;;;5096176;28;20480;-75
2022/09/05 13:11:18;;;;;;;3.23;2.93;;;;;;;;;;5096516;28;20459;-75
2022/09/05 13:13:48;;;;;;;4.70;2.93;;;;;;;;;;5096397;28;20471;-74
2022/09/05 13:16:21;;;;;;;5.00;2.50;;;;;;;;;;5096397;28;20774;-75
2022/09/05 13:18:51;;;;;;;4.20;3.20;;;;;;;;;;5096355;28;20795;-75
2022/09/05 13:21:20;;;;;;;3.00;2.70;;;;;;;;;;5095388;28;20495;-75
2022/09/05 13:23:56;;;;;;;5.60;3.00;;;;;;;;;;5096415;28;20841;-74
2022/09/05 13:26:25;;;;;;;3.77;3.47;;;;;;;;;;5096226;28;20908;-74
2022/09/05 13:28:55;;;;;;;3.97;3.67;;;;;;;;;;5096164;28;20820;-74
2022/09/05 13:31:37;;;;;;;4.27;3.20;;;;;;;;;;5095943;28;20880;-74
2022/09/05 13:34:10;;;;;;;5.33;2.57;;;;;;;;;;5096101;28;20978;-74
2022/09/05 13:36:40;;;;;;;4.00;2.70;;;;;;;;;;5095966;28;20431;-75
2022/09/05 13:39:08;;;;;;;2.90;2.60;;;;;;;;;;5095947;28;20451;-75
2022/09/05 13:41:36;;;;;;;3.43;2.87;;;;;;;;;;5095523;28;20524;-75
2022/09/05 13:44:09;;;;;;;5.77;3.77;;;;;;;;;;5095663;28;20994;-75
2022/09/05 13:46:41;;;;;;;3.57;2.20;;;;;;;;;;5095501;28;20442;-75
2022/09/05 13:49:14;;;;;;;3.27;2.80;;;;;;;;;;5095932;28;20430;-75
2022/09/05 13:51:43;;;;;;;2.97;2.30;;;;;;;;;;5095293;28;20427;-75
2022/09/05 13:54:25;;;;;;;6.33;2.93;;;;;;;;;;5095132;28;20477;-74
2022/09/05 13:56:55;;;;;;;4.37;3.10;;;;;;;;;;5082511;28;20454;-74
2022/09/05 13:59:23;;;;;;;5.40;4.90;;;;;;;;;;5095396;28;20462;-74
2022/09/05 14:02:05;;;;;;;5.07;2.53;;;;;;;;;;5095082;28;20482;-74
2022/09/05 14:04:55;;;;;;;4.03;2.77;;;;;;;;;;5092968;28;20485;-74
2022/09/05 14:07:44;;;;;;;3.67;3.20;;;;;;;;;;5095124;28;20438;-74
2022/09/05 14:10:21;;;;;;;3.07;2.70;;;;;;;;;;5095003;28;20439;-75
2022/09/05 14:12:50;;;;;;;2.70;2.40;;;;;;;;;;5095204;28;20427;-74
2022/09/05 14:15:24;;;;;;;4.60;2.83;;;;;;;;;;5095029;28;20497;-74
2022/09/05 14:17:57;;;;;;;3.00;2.70;;;;;;;;;;5095142;28;20442;-75
2022/09/05 14:23:13;;;;;;;2.60;2.40;;;;;;;;;;5094789;28;20470;-75
2022/09/05 14:25:43;;;;;;;3.77;2.80;;;;;;;;;;5095649;28;20439;-75
2022/09/05 14:28:12;;;;;;;5.87;2.60;;;;;;;;;;5094903;28;20485;-74
2022/09/05 14:30:42;;;;;;;9.73;3.07;;;;;;;;;;5095629;28;20803;-74
2022/09/05 14:33:19;;;;;;;3.17;2.87;;;;;;;;;;5094318;28;20442;-74
2022/09/05 14:35:50;;;;;;;2.80;2.60;;;;;;;;;;5094916;28;20431;-74
2022/09/05 14:38:23;;;;;;;3.23;2.13;;;;;;;;;;5094764;28;20531;-74
2022/09/05 14:41:09;;;;;;;3.33;2.67;;;;;;;;;;5094478;28;20463;-74
2022/09/05 14:43:54;;;;;;;3.90;2.10;;;;;;;;;;5094539;28;20498;-74
2022/09/05 14:46:34;;;;;;;6.03;3.20;;;;;;;;;;5094029;28;20435;-74
2022/09/05 14:49:10;;;;;;;5.53;2.70;;;;;;;;;;5094629;28;20431;-75
2022/09/05 14:51:45;;;;;;;7.30;2.90;;;;;;;;;;5094722;28;20456;-75
2022/09/05 14:54:14;;;;;;;2.63;2.43;;;;;;;;;;5094448;28;20470;-75
2022/09/05 14:56:42;;;;;;;3.73;2.73;;;;;;;;;;5094389;28;20451;-75
2022/09/05 14:59:14;;;;;;;4.77;2.60;;;;;;;;;;5094550;28;20461;-75
2022/09/05 15:01:48;;;;;;;3.37;3.07;;;;;;;;;;5094661;28;20435;-75
2022/09/05 15:04:21;;;;;;;4.00;2.30;;;;;;;;;;5094628;28;20474;-74
2022/09/05 15:07:01;;;;;;;2.57;2.37;;;;;;;;;;5094551;28;20500;-74
2022/09/05 15:09:28;;;;;;;2.77;2.53;;;;;;;;;;5094593;28;20435;-75
2022/09/05 15:11:58;;;;;;;2.93;2.70;;;;;;;;;;5094761;28;20958;-74
2022/09/05 15:14:28;;;;;;;2.90;2.63;;;;;;;;;;5094891;28;20886;-74
2022/09/05 15:16:59;;;;;;;3.00;2.73;;;;;;;;;;5094502;28;20455;-75
2022/09/05 15:19:46;;;;;;;7.20;2.80;;;;;;;;;;5093847;28;20546;-75
2022/09/05 15:22:23;;;;;;;4.23;2.57;;;;;;;;;;5094260;28;20989;-75